createdAt,value
2022-12-18T00:02:13.959Z,102900.81
2022-12-18T00:04:40.488Z,102906.13
2022-12-18T00:07:07.027Z,102902.69
2022-12-18T00:09:39.785Z,102895.97
2022-12-18T00:14:42.885Z,102878.97
2022-12-18T00:17:09.360Z,102872.97
2022-12-18T00:19:35.999Z,102868.06
2022-12-18T00:22:02.424Z,102870.06
2022-12-18T00:24:28.851Z,102876.03
2022-12-18T00:26:55.271Z,102869.28
2022-12-18T00:29:21.716Z,102869.50
2022-12-18T00:31:48.228Z,102870.38
2022-12-18T00:34:15.098Z,102883.31
2022-12-18T00:36:42.418Z,102890.66
2022-12-18T00:39:11.327Z,102885.56
2022-12-18T00:41:56.309Z,102869.59
2022-12-18T00:44:22.804Z,102878.03
2022-12-18T00:46:49.329Z,102875.97
2022-12-18T00:49:18.716Z,102871.03
2022-12-18T00:51:46.215Z,102870.22
2022-12-18T00:54:12.721Z,102871.94
2022-12-18T00:56:48.251Z,102864.34
2022-12-18T00:59:15.991Z,102878.50
2022-12-18T01:01:42.605Z,102874.59
2022-12-18T01:04:09.289Z,102880.88
2022-12-18T01:06:36.154Z,102863.53
2022-12-18T01:09:03.163Z,102859.72
2022-12-18T01:11:29.707Z,102858.91
2022-12-18T01:13:56.376Z,102865.69
2022-12-18T01:16:23.735Z,102860.81
2022-12-18T01:18:53.633Z,102877.78
2022-12-18T01:21:20.494Z,102873.88
2022-12-18T01:23:47.552Z,102869.84
2022-12-18T01:26:16.475Z,102887.44
2022-12-18T01:28:44.748Z,102878.03
2022-12-18T01:31:15.727Z,102884.41
2022-12-18T01:33:42.337Z,102886.69
2022-12-18T01:36:09.919Z,102879.94
2022-12-18T01:38:36.351Z,102876.69
2022-12-18T01:41:03.087Z,102871.75
2022-12-18T01:44:01.771Z,102878.09
2022-12-18T01:46:28.797Z,102879.94
2022-12-18T01:48:58.790Z,102882.00
2022-12-18T01:51:27.413Z,102879.56
2022-12-18T01:53:53.884Z,102883.03
2022-12-18T01:56:22.035Z,102887.53
2022-12-18T01:58:54.573Z,102883.84
2022-12-18T02:01:24.654Z,102894.69
2022-12-18T02:03:52.329Z,102887.53
2022-12-18T02:06:33.800Z,102889.38
2022-12-18T02:09:10.810Z,102890.78
2022-12-18T02:12:11.596Z,102885.69
2022-12-18T02:14:59.728Z,102894.28
2022-12-18T02:17:40.844Z,102888.75
2022-12-18T02:20:30.781Z,102890.00
2022-12-18T02:23:20.968Z,102877.53
2022-12-18T02:26:12.464Z,102895.06
2022-12-18T02:28:54.079Z,102896.31
2022-12-18T02:31:27.447Z,102888.75
2022-12-18T02:33:57.467Z,102888.75
2022-12-18T02:36:26.488Z,102891.22
2022-12-18T02:38:54.628Z,102883.44
2022-12-18T02:41:22.729Z,102883.22
2022-12-18T02:43:50.427Z,102875.28
2022-12-18T02:46:37.936Z,102876.28
2022-12-18T02:49:25.477Z,102881.81
2022-12-18T02:52:01.913Z,102875.91
2022-12-18T02:54:46.413Z,102874.66
2022-12-18T02:57:36.129Z,102876.50
2022-12-18T03:00:11.384Z,102875.25
2022-12-18T03:03:08.914Z,102868.31
2022-12-18T03:05:41.224Z,102863.63
2022-12-18T03:08:14.058Z,102862.22
2022-12-18T03:10:46.768Z,102858.53
2022-12-18T03:13:20.064Z,102849.13
2022-12-18T03:15:54.031Z,102847.72
2022-12-18T03:18:46.832Z,102836.88
2022-12-18T03:21:17.083Z,102837.50
2022-12-18T03:23:50.816Z,102850.16
2022-12-18T03:26:25.695Z,102833.00
2022-12-18T03:29:00.690Z,102825.84
2022-12-18T03:31:31.817Z,102828.09
2022-12-18T03:34:06.591Z,102824.84
2022-12-18T03:36:33.131Z,102829.13
2022-12-18T03:38:59.768Z,102837.09
2022-12-18T03:41:54.703Z,102831.19
2022-12-18T03:44:37.697Z,102827.09
2022-12-18T03:47:21.611Z,102824.44
2022-12-18T03:50:09.585Z,102820.16
2022-12-18T03:52:41.822Z,102816.47
2022-12-18T03:55:10.124Z,102815.84
2022-12-18T03:57:37.935Z,102820.56
2022-12-18T04:00:16.361Z,102821.38
2022-12-18T04:02:48.946Z,102821.97
2022-12-18T04:05:16.744Z,102808.31
2022-12-18T04:07:44.876Z,102811.34
2022-12-18T04:10:13.245Z,102799.09
2022-12-18T04:12:39.692Z,102791.78
2022-12-18T04:15:07.399Z,102803.22
2022-12-18T04:17:33.809Z,102798.50
2022-12-18T04:20:00.260Z,102797.09
2022-12-18T04:22:26.683Z,102801.75
2022-12-18T04:24:53.136Z,102801.34
2022-12-18T04:27:19.758Z,102799.50
2022-12-18T04:29:46.196Z,102797.66
2022-12-18T04:32:12.620Z,102800.53
2022-12-18T04:34:39.104Z,102795.22
2022-12-18T04:37:05.527Z,102797.22
2022-12-18T04:39:32.038Z,102793.56
2022-12-18T04:41:58.464Z,102805.63
2022-12-18T04:44:24.931Z,102805.63
2022-12-18T04:46:51.412Z,102817.28
2022-12-18T04:49:17.897Z,102812.38
2022-12-18T04:51:44.340Z,102824.84
2022-12-18T04:54:10.758Z,102828.69
2022-12-18T04:56:37.232Z,102822.78
2022-12-18T04:59:03.643Z,102820.16
2022-12-18T05:01:34.536Z,102824.63
2022-12-18T05:04:02.616Z,102825.22
2022-12-18T05:06:29.136Z,102828.94
2022-12-18T05:08:55.928Z,102836.47
2022-12-18T05:11:22.600Z,102835.25
2022-12-18T05:13:49.111Z,102835.25
2022-12-18T05:16:15.779Z,102842.59
2022-12-18T05:18:42.978Z,102832.00
2022-12-18T05:21:09.719Z,102841.19
2022-12-18T05:23:37.011Z,102848.53
2022-12-18T05:26:06.071Z,102847.50
2022-12-18T05:28:34.833Z,102852.59
2022-12-18T05:31:03.255Z,102852.59
2022-12-18T05:33:32.721Z,102853.63
2022-12-18T05:36:04.248Z,102849.34
2022-12-18T05:38:32.313Z,102848.94
2022-12-18T05:40:59.203Z,102843.63
2022-12-18T05:43:27.222Z,102846.06
2022-12-18T05:45:55.201Z,102840.16
2022-12-18T05:48:22.312Z,102825.44
2022-12-18T05:50:51.168Z,102833.41
2022-12-18T05:53:19.187Z,102818.72
2022-12-18T05:55:46.383Z,102813.78
2022-12-18T05:58:14.359Z,102805.84
2022-12-18T06:00:45.905Z,102823.19
2022-12-18T06:03:13.548Z,102817.47
2022-12-18T06:05:42.763Z,102819.72
2022-12-18T06:08:09.754Z,102812.16
2022-12-18T06:10:36.423Z,102802.97
2022-12-18T06:13:02.920Z,102792.75
2022-12-18T06:15:29.323Z,102794.78
2022-12-18T06:17:55.776Z,102801.34
2022-12-18T06:20:22.435Z,102795.63
2022-12-18T06:22:49.187Z,102794.19
2022-12-18T06:25:16.312Z,102790.13
2022-12-18T06:27:43.023Z,102786.44
2022-12-18T06:30:10.933Z,102796.84
2022-12-18T06:32:37.424Z,102791.94
2022-12-18T06:35:04.795Z,102791.75
2022-12-18T06:37:32.505Z,102791.31
2022-12-18T06:39:58.999Z,102785.63
2022-12-18T06:42:25.810Z,102777.66
2022-12-18T06:44:52.308Z,102779.66
2022-12-18T06:47:19.391Z,102767.84
2022-12-18T06:49:45.842Z,102767.63
2022-12-18T06:52:12.282Z,102769.69
2022-12-18T06:54:38.784Z,102761.72
2022-12-18T06:57:05.236Z,102753.53
2022-12-18T06:59:31.688Z,102739.47
2022-12-18T07:01:58.310Z,102744.78
2022-12-18T07:04:32.647Z,102742.31
2022-12-18T07:06:59.062Z,102743.56
2022-12-18T07:09:25.699Z,102749.47
2022-12-18T07:11:53.283Z,102741.91
2022-12-18T07:14:19.791Z,102741.72
2022-12-18T07:16:46.350Z,102737.22
2022-12-18T07:19:12.915Z,102728.00
2022-12-18T07:21:39.569Z,102734.53
2022-12-18T07:24:06.724Z,102727.19
2022-12-18T07:26:33.205Z,102725.31
2022-12-18T07:28:59.817Z,102726.53
2022-12-18T07:31:27.434Z,102722.03
2022-12-18T07:33:54.547Z,102722.00
2022-12-18T07:36:23.833Z,102719.09
2022-12-18T07:38:51.182Z,102721.56
2022-12-18T07:41:18.121Z,102708.06
2022-12-18T07:43:44.901Z,102701.91
2022-12-18T07:46:14.678Z,102709.47
2022-12-18T07:48:42.875Z,102697.56
2022-12-18T07:51:11.171Z,102695.91
2022-12-18T07:53:38.074Z,102684.84
2022-12-18T07:58:54.394Z,102687.06
2022-12-18T08:01:21.365Z,102677.22
2022-12-18T08:03:48.108Z,102678.25
2022-12-18T08:06:14.992Z,102681.31
2022-12-18T08:08:43.170Z,102678.91
2022-12-18T08:11:10.678Z,102678.66
2022-12-18T08:13:37.388Z,102674.53
2022-12-18T08:16:07.126Z,102665.69
2022-12-18T08:18:35.229Z,102656.66
2022-12-18T08:21:16.942Z,102661.53
2022-12-18T08:23:44.180Z,102665.59
2022-12-18T08:26:12.428Z,102670.03
2022-12-18T08:28:39.660Z,102690.88
2022-12-18T08:31:06.735Z,102703.16
2022-12-18T08:33:34.526Z,102699.25
2022-12-18T08:36:01.351Z,102691.66
2022-12-18T08:38:28.255Z,102686.31
2022-12-18T08:41:02.628Z,102688.41
2022-12-18T08:43:47.775Z,102699.03
2022-12-18T08:46:14.336Z,102690.84
2022-12-18T08:48:40.877Z,102684.53
2022-12-18T08:51:07.672Z,102681.22
2022-12-18T08:53:35.819Z,102677.91
2022-12-18T08:56:02.856Z,102684.03
2022-12-18T08:58:29.434Z,102687.31
2022-12-18T09:01:01.034Z,102684.47
2022-12-18T09:03:27.595Z,102681.31
2022-12-18T09:05:54.051Z,102677.84
2022-12-18T09:08:20.625Z,102676.59
2022-12-18T09:10:49.588Z,102689.00
2022-12-18T09:13:17.120Z,102689.56
2022-12-18T09:15:46.309Z,102689.75
2022-12-18T09:18:14.121Z,102683.53
2022-12-18T09:20:40.936Z,102697.75
2022-12-18T09:23:08.411Z,102690.31
2022-12-18T09:25:36.756Z,102679.19
2022-12-18T09:28:05.496Z,102690.25
2022-12-18T09:30:34.263Z,102683.94
2022-12-18T09:33:01.884Z,102686.31
2022-12-18T09:35:28.858Z,102684.81
2022-12-18T09:37:55.435Z,102663.69
2022-12-18T09:40:26.097Z,102659.91
2022-12-18T09:43:01.610Z,102661.53
2022-12-18T09:45:31.404Z,102657.66
2022-12-18T09:47:58.575Z,102653.75
2022-12-18T09:50:33.663Z,102638.09
2022-12-18T09:53:06.872Z,102638.91
2022-12-18T09:55:41.283Z,102642.31
2022-12-18T09:58:17.317Z,102632.50
2022-12-18T10:00:44.152Z,102633.91
2022-12-18T10:03:15.447Z,102637.03
2022-12-18T10:06:01.414Z,102639.84
2022-12-18T10:09:20.323Z,102634.28
2022-12-18T10:11:46.724Z,102642.53
2022-12-18T10:14:30.869Z,102639.91
2022-12-18T10:17:18.460Z,102624.25
2022-12-18T10:19:52.322Z,102619.16
2022-12-18T10:22:36.777Z,102623.47
2022-12-18T10:25:15.095Z,102634.94
2022-12-18T10:27:41.831Z,102637.84
2022-12-18T10:30:21.954Z,102635.06
2022-12-18T10:32:48.395Z,102626.06
2022-12-18T10:35:22.558Z,102613.75
2022-12-18T10:38:00.620Z,102618.47
2022-12-18T10:40:27.404Z,102600.16
2022-12-18T10:43:15.459Z,102604.47
2022-12-18T10:45:43.159Z,102591.69
2022-12-18T10:48:21.943Z,102591.91
2022-12-18T10:53:38.188Z,102592.84
2022-12-18T10:56:07.166Z,102585.41
2022-12-18T10:58:36.576Z,102583.31
2022-12-18T11:01:07.652Z,102582.63
2022-12-18T11:03:41.702Z,102577.38
2022-12-18T11:06:22.703Z,102570.53
2022-12-18T11:09:21.824Z,102573.19
2022-12-18T11:11:54.477Z,102569.47
2022-12-18T11:14:33.279Z,102564.03
2022-12-18T11:19:55.205Z,102551.94
2022-12-18T11:22:33.413Z,102550.41
2022-12-18T11:25:30.856Z,102542.25
2022-12-18T11:27:51.273Z,102535.53
2022-12-18T11:30:20.688Z,102537.59
2022-12-18T11:32:51.993Z,102546.28
2022-12-18T11:35:23.017Z,102542.88
2022-12-18T11:38:00.143Z,102541.69
2022-12-18T11:40:40.834Z,102539.25
2022-12-18T11:43:39.056Z,102532.28
2022-12-18T11:46:17.629Z,102532.75
2022-12-18T11:49:29.194Z,102544.59
2022-12-18T11:51:55.619Z,102536.75
2022-12-18T11:54:22.129Z,102528.63
2022-12-18T11:57:10.292Z,102521.78
2022-12-18T12:00:15.951Z,102509.28
2022-12-18T12:03:02.130Z,102499.66
2022-12-18T12:05:51.020Z,102495.47
2022-12-18T12:08:28.132Z,102499.81
2022-12-18T12:11:11.264Z,102487.84
2022-12-18T12:14:14.668Z,102477.97
2022-12-18T12:16:47.121Z,102476.34
2022-12-18T12:19:25.471Z,102476.25
2022-12-18T12:22:16.243Z,102477.72
2022-12-18T12:25:20.480Z,102462.63
2022-12-18T12:27:54.434Z,102469.34
2022-12-18T12:30:26.650Z,102461.56
2022-12-18T12:33:05.787Z,102464.75
2022-12-18T12:35:58.268Z,102459.41
2022-12-18T12:38:35.031Z,102454.63
2022-12-18T12:41:06.293Z,102442.38
2022-12-18T12:46:41.605Z,102429.97
2022-12-18T12:49:16.523Z,102430.28
2022-12-18T12:51:48.687Z,102420.06
2022-12-18T12:54:22.334Z,102424.63
2022-12-18T12:57:20.999Z,102417.56
2022-12-18T13:00:06.175Z,102422.13
2022-12-18T13:02:51.968Z,102415.22
2022-12-18T13:05:26.961Z,102421.31
2022-12-18T13:08:10.340Z,102405.56
2022-12-18T13:10:38.958Z,102401.66
2022-12-18T13:13:09.182Z,102403.06
2022-12-18T13:13:43.289Z,102430.69
2022-12-18T13:15:46.778Z,102410.50
2022-12-18T13:18:19.679Z,102411.00
2022-12-18T13:20:53.155Z,102416.59
2022-12-18T13:23:24.689Z,102415.28
2022-12-18T13:25:55.881Z,102411.25
2022-12-18T13:28:34.549Z,102401.09
2022-12-18T13:31:02.559Z,102406.53
2022-12-18T13:34:01.967Z,102398.72
2022-12-18T13:36:34.527Z,102390.22
2022-12-18T13:39:34.101Z,102395.84
2022-12-18T13:42:07.227Z,102386.66
2022-12-18T13:44:41.613Z,102390.16
2022-12-18T13:47:29.373Z,102394.53
2022-12-18T13:49:56.075Z,102379.53
2022-12-18T13:52:26.330Z,102373.19
2022-12-18T13:54:56.138Z,102375.38
2022-12-18T13:57:41.672Z,102376.19
2022-12-18T14:00:23.431Z,102368.16
2022-12-18T14:02:51.343Z,102358.25
2022-12-18T14:05:35.189Z,102356.31
2022-12-18T14:08:06.905Z,102353.41
2022-12-18T14:10:47.921Z,102353.88
2022-12-18T14:13:41.292Z,102345.63
2022-12-18T14:16:09.046Z,102333.38
2022-12-18T14:19:04.116Z,102338.66
2022-12-18T14:21:47.360Z,102332.38
2022-12-18T14:24:22.516Z,102336.41
2022-12-18T14:26:50.778Z,102340.13
2022-12-18T14:29:29.165Z,102324.72
2022-12-18T14:32:18.681Z,102321.53
2022-12-18T14:34:50.904Z,102317.19
2022-12-18T14:37:22.657Z,102323.66
2022-12-18T14:39:57.932Z,102324.22
2022-12-18T14:42:28.870Z,102309.38
2022-12-18T14:45:37.434Z,102303.56
2022-12-18T14:48:09.829Z,102302.25
2022-12-18T14:50:37.996Z,102299.09
2022-12-18T14:53:09.022Z,102299.31
2022-12-18T14:55:35.635Z,102299.53
2022-12-18T14:58:02.791Z,102298.72
2022-12-18T15:00:29.280Z,102308.13
2022-12-18T15:02:57.921Z,102303.28
2022-12-18T15:05:30.565Z,102303.81
2022-12-18T15:08:00.104Z,102297.56
2022-12-18T15:10:32.565Z,102297.84
2022-12-18T15:13:00.809Z,102293.56
2022-12-18T15:15:40.229Z,102286.38
2022-12-18T15:18:09.641Z,102290.38
2022-12-18T15:20:45.043Z,102293.81
2022-12-18T15:23:21.730Z,102288.72
2022-12-18T15:25:55.226Z,102290.81
2022-12-18T15:28:39.063Z,102282.00
2022-12-18T15:31:09.866Z,102288.47
2022-12-18T15:33:39.983Z,102282.78
2022-12-18T15:36:12.475Z,102296.94
2022-12-18T15:38:38.960Z,102295.31
2022-12-18T15:41:24.863Z,102298.16
2022-12-18T15:43:53.220Z,102288.81
2022-12-18T15:46:22.813Z,102296.03
2022-12-18T15:48:53.555Z,102298.47
2022-12-18T15:51:23.094Z,102291.84
2022-12-18T15:53:52.648Z,102274.78
2022-12-18T15:56:37.848Z,102280.13
2022-12-18T15:59:13.500Z,102272.06
2022-12-18T16:01:42.827Z,102264.28
2022-12-18T16:04:13.099Z,102261.03
2022-12-18T16:06:58.069Z,102250.91
2022-12-18T16:09:26.386Z,102246.97
2022-12-18T16:11:53.365Z,102251.28
2022-12-18T16:14:28.992Z,102246.75
2022-12-18T16:16:58.064Z,102244.50
2022-12-18T16:19:25.330Z,102245.31
2022-12-18T16:21:54.016Z,102234.63
2022-12-18T16:24:26.091Z,102235.91
2022-12-18T16:26:54.113Z,102224.41
2022-12-18T16:29:28.018Z,102211.78
2022-12-18T16:31:59.078Z,102227.06
2022-12-18T16:34:32.874Z,102209.22
2022-12-18T16:37:05.884Z,102212.63
2022-12-18T16:39:35.018Z,102214.28
2022-12-18T16:42:09.654Z,102192.31
2022-12-18T16:44:36.450Z,102198.72
2022-12-18T16:47:04.303Z,102200.91
2022-12-18T16:49:31.594Z,102194.78
2022-12-18T16:51:58.144Z,102188.03
2022-12-18T16:54:25.133Z,102183.75
2022-12-18T16:56:52.313Z,102194.50
2022-12-18T16:59:19.859Z,102198.28
2022-12-18T17:01:46.871Z,102202.00
2022-12-18T17:04:13.564Z,102186.22
2022-12-18T17:06:43.084Z,102178.72
2022-12-18T17:09:14.964Z,102185.69
2022-12-18T17:11:41.880Z,102189.63
2022-12-18T17:14:10.761Z,102191.72
2022-12-18T17:16:37.252Z,102198.97
2022-12-18T17:19:05.144Z,102204.31
2022-12-18T17:21:31.788Z,102201.72
2022-12-18T17:24:01.320Z,102199.03
2022-12-18T17:26:28.155Z,102196.41
2022-12-18T17:28:57.699Z,102192.94
2022-12-18T17:31:26.202Z,102193.09
2022-12-18T17:33:53.570Z,102185.00
2022-12-18T17:36:21.320Z,102184.81
2022-12-18T17:38:57.141Z,102185.91
2022-12-18T17:41:24.882Z,102193.13
2022-12-18T17:43:56.351Z,102193.91
2022-12-18T17:46:23.397Z,102192.00
2022-12-18T17:48:50.086Z,102194.31
2022-12-18T17:51:17.935Z,102195.38
2022-12-18T17:53:44.827Z,102193.53
2022-12-18T17:56:17.166Z,102191.94
2022-12-18T17:58:44.187Z,102179.72
2022-12-18T18:01:13.827Z,102180.50
2022-12-18T18:03:42.876Z,102184.72
2022-12-18T18:06:09.913Z,102185.50
2022-12-18T18:08:37.549Z,102184.44
2022-12-18T18:11:28.226Z,102188.47
2022-12-18T18:14:00.801Z,102184.00
2022-12-18T18:16:35.097Z,102186.94
2022-12-18T18:19:07.357Z,102186.13
2022-12-18T18:21:35.087Z,102192.28
2022-12-18T18:24:03.116Z,102176.50
2022-12-18T18:26:31.866Z,102181.31
2022-12-18T18:29:00.063Z,102179.19
2022-12-18T18:31:30.809Z,102183.19
2022-12-18T18:33:57.941Z,102172.16
2022-12-18T18:36:24.610Z,102174.84
2022-12-18T18:38:52.000Z,102169.31
2022-12-18T18:41:18.928Z,102161.59
2022-12-18T18:43:45.454Z,102166.69
2022-12-18T18:46:14.066Z,102161.09
2022-12-18T18:48:42.999Z,102169.38
2022-12-18T18:51:21.174Z,102165.69
2022-12-18T18:53:49.955Z,102179.81
2022-12-18T18:59:05.234Z,102159.22
2022-12-18T19:01:31.938Z,102167.81
2022-12-18T19:03:58.682Z,102164.56
2022-12-18T19:06:27.735Z,102153.34
2022-12-18T19:08:55.643Z,102158.72
2022-12-18T19:11:42.401Z,102157.34
2022-12-18T19:14:11.721Z,102160.84
2022-12-18T19:16:38.911Z,102156.84
2022-12-18T19:19:05.715Z,102162.50
2022-12-18T19:21:34.603Z,102147.81
2022-12-18T19:24:02.454Z,102154.53
2022-12-18T19:26:29.237Z,102151.84
2022-12-18T19:29:04.521Z,102152.09
2022-12-18T19:31:35.517Z,102160.38
2022-12-18T19:34:03.785Z,102163.06
2022-12-18T19:36:31.233Z,102164.38
2022-12-18T19:38:59.899Z,102163.84
2022-12-18T19:41:29.048Z,102171.59
2022-12-18T19:43:55.824Z,102174.28
2022-12-18T19:46:23.306Z,102166.50
2022-12-18T19:48:50.555Z,102159.06
2022-12-18T19:51:18.343Z,102163.13
2022-12-18T19:53:45.401Z,102167.91
2022-12-18T19:56:15.057Z,102165.28
2022-12-18T19:58:42.255Z,102165.28
2022-12-18T20:01:10.277Z,102170.81
2022-12-18T20:03:38.943Z,102156.16
2022-12-18T20:06:12.794Z,102155.31
2022-12-18T20:08:40.040Z,102149.44
2022-12-18T20:11:07.266Z,102154.78
2022-12-18T20:13:34.552Z,102159.06
2022-12-18T20:16:01.232Z,102158.00
2022-12-18T20:18:27.914Z,102160.94
2022-12-18T20:20:55.196Z,102163.03
2022-12-18T20:23:24.504Z,102169.66
2022-12-18T20:25:54.600Z,102173.16
2022-12-18T20:28:22.542Z,102165.13
2022-12-18T20:30:49.125Z,102168.84
2022-12-18T20:33:16.221Z,102164.72
2022-12-18T20:35:43.376Z,102165.28
2022-12-18T20:38:10.427Z,102156.97
2022-12-18T20:40:41.412Z,102154.47
2022-12-18T20:43:11.301Z,102154.53
2022-12-18T20:45:41.335Z,102142.53
2022-12-18T20:48:09.556Z,102155.66
2022-12-18T20:50:36.353Z,102145.94
2022-12-18T20:53:02.860Z,102140.09
2022-12-18T20:55:29.375Z,102149.50
2022-12-18T20:57:55.959Z,102143.28
2022-12-18T21:00:22.693Z,102146.50
2022-12-18T21:02:49.303Z,102125.88
2022-12-18T21:05:15.900Z,102122.34
2022-12-18T21:07:42.322Z,102121.03
2022-12-18T21:10:09.300Z,102109.31
2022-12-18T21:12:42.833Z,102104.84
2022-12-18T21:15:28.589Z,102101.84
2022-12-18T21:17:55.458Z,102101.63
2022-12-18T21:20:21.893Z,102098.69
2022-12-18T21:22:49.397Z,102084.53
2022-12-18T21:25:15.963Z,102079.72
2022-12-18T21:27:42.389Z,102073.25
2022-12-18T21:30:09.417Z,102075.91
2022-12-18T21:32:35.863Z,102073.03
2022-12-18T21:35:02.376Z,102073.81
2022-12-18T21:37:28.837Z,102084.28
2022-12-18T21:39:55.332Z,102080.59
2022-12-18T21:42:48.056Z,102070.19
2022-12-18T21:45:14.612Z,102074.72
2022-12-18T21:47:41.058Z,102083.00
2022-12-18T21:50:07.770Z,102091.81
2022-12-18T21:52:34.214Z,102087.84
2022-12-18T21:55:08.343Z,102065.38
2022-12-18T21:57:35.571Z,102049.38
2022-12-18T22:00:02.951Z,102058.47
2022-12-18T22:02:29.698Z,102052.53
2022-12-18T22:04:56.354Z,102051.47
2022-12-18T22:07:22.996Z,102037.28
2022-12-18T22:09:50.632Z,102032.44
2022-12-18T22:12:35.167Z,102036.75
2022-12-18T22:15:04.387Z,102022.56
2022-12-18T22:17:30.957Z,102018.03
2022-12-18T22:19:57.606Z,102007.91
2022-12-18T22:22:24.271Z,102010.06
2022-12-18T22:24:50.728Z,102007.69
2022-12-18T22:27:17.149Z,101995.41
2022-12-18T22:30:02.290Z,101983.34
2022-12-18T22:32:30.769Z,101981.78
2022-12-18T22:35:04.870Z,101978.31
2022-12-18T22:37:32.804Z,101971.34
2022-12-18T22:39:59.187Z,101966.28
2022-12-18T22:42:29.437Z,101961.19
2022-12-18T22:44:55.898Z,101958.50
2022-12-18T22:47:25.395Z,101961.22
2022-12-18T22:49:55.775Z,101959.38
2022-12-18T22:52:22.209Z,101949.19
2022-12-18T22:54:51.194Z,101933.69
2022-12-18T22:57:20.315Z,101933.16
2022-12-18T22:59:46.736Z,101928.56
2022-12-18T23:02:13.366Z,101930.41
2022-12-18T23:04:39.934Z,101931.22
2022-12-18T23:07:06.505Z,101932.03
2022-12-18T23:09:33.313Z,101920.81
2022-12-18T23:12:00.677Z,101909.56
2022-12-18T23:14:28.509Z,101898.09
2022-12-18T23:16:55.152Z,101890.31
2022-12-18T23:19:23.467Z,101895.16
2022-12-18T23:21:50.650Z,101906.41
2022-12-18T23:24:17.092Z,101907.72
2022-12-18T23:26:43.643Z,101909.03
2022-12-18T23:29:10.178Z,101911.66
2022-12-18T23:31:38.870Z,101910.06
2022-12-18T23:34:07.985Z,101893.19
2022-12-18T23:36:45.827Z,101894.28
2022-12-18T23:39:19.243Z,101888.41
2022-12-18T23:41:57.717Z,101869.97
2022-12-18T23:44:24.300Z,101850.19
2022-12-18T23:46:50.890Z,101848.59
2022-12-18T23:49:17.417Z,101851.00
2022-12-18T23:51:43.863Z,101852.38
2022-12-18T23:54:10.547Z,101859.81
2022-12-18T23:56:36.989Z,101858.97
2022-12-18T23:59:03.535Z,101860.88
